Etusivu
METAR-TAF:

METAR-TAF

Lentoasemat :

Kelowna, Brittiläinen Kolumbia, Kanada

Leveyspiiri: 49-58N, Pituuspiiri: 119-23W, korkeus merenpinnasta: 430 m

Tämänhetkinen sää

Tämä raportti tehtiin 10 minuuttia sitten, kello 09.00 UTC
Tuuli 3 kn idästä/koillisesta
Lämpötila 7°C
Kosteus 93%
Ilmanpaine 1019 hPa
Näkyvyys: 14.5 km
selkeää

METAR: CYLW 130900Z AUTO 07003KT 9SM CLR 07/06 A3008 RMK SLP190

Aika: 02:10 (09:10 UTC)

Sääennuste

Tämä raportti tehtiin 2 tuntia ja 32 minuuttia sitten, kello 06.38 UTC
Ennuste voimassa 13. päivästä klo 07 UTC - 13. päivään klo 19 UTC
Tuuli 3 kn eri suunnista
Näkyvyys: 10 km
Hajanaisia pilviä 7000 ft:n korkeudessa
Ajoittain
13. päivästä klo 07 UTC - 13. päivään klo 14 UTC
Näkyvyys: 3.2 km
utua

TAF: CYLW 130638Z 1307/1319 VRB03KT P6SM SCT070 TEMPO 1307/1314 2SM BR RMK FCST BASED ON AUTO OBS. NXT FCST BY 131300Z

Säähavainnot ja -ennusteet yli 4000 lentoasemalta (METAR- ja TAF-raportit).

Käytössä olevat sääasemat on merkitty karttaan keltaisilla ja punaisilla pisteillä.

Aseta hiiri pisteen päälle nähdäksesi sääaseman nimen.

Klikkaa sitten nähdäksesi säähavainnot ja -ennusteet.

Kartan vaihtaminen: klikkaa mustalla rastilla varustettuja vihreitä pisteitä, niin voit zoomata sisään; viivalla varustettua vihreää pistettä, niin voit zoomata ulos tai vihreitä nuolia, niin pääset viereisille kartoille.


METAR-TAF: